createdAt,value
2017-04-16T00:00:47.166Z,11.98
2017-04-16T00:01:46.385Z,12.53
2017-04-16T00:02:45.635Z,12.05
2017-04-16T00:03:44.864Z,12.15
2017-04-16T00:04:44.145Z,10.82
2017-04-16T00:05:43.366Z,11.40
2017-04-16T00:06:42.656Z,10.97
2017-04-16T00:07:41.913Z,11.67
2017-04-16T00:08:41.145Z,13.28
2017-04-16T00:09:41.357Z,12.77
2017-04-16T00:10:40.640Z,11.65
2017-04-16T00:11:39.860Z,11.10
2017-04-16T00:12:39.085Z,11.88
2017-04-16T00:13:38.292Z,11.17
2017-04-16T00:14:37.533Z,9.95
2017-04-16T00:15:36.782Z,10.60
2017-04-16T00:16:36.305Z,12.77
2017-04-16T00:17:35.565Z,11.52
2017-04-16T00:18:34.814Z,12.20
2017-04-16T00:19:34.045Z,11.93
2017-04-16T00:20:33.273Z,11.17
2017-04-16T00:21:32.540Z,11.47
2017-04-16T00:22:32.550Z,11.37
2017-04-16T00:23:32.538Z,12.72
2017-04-16T00:24:31.769Z,10.47
2017-04-16T00:25:31.013Z,12.17
2017-04-16T00:26:30.297Z,11.92
2017-04-16T00:27:29.507Z,11.88
2017-04-16T00:28:28.764Z,11.07
2017-04-16T00:29:27.980Z,12.42
2017-04-16T00:30:27.208Z,13.63
2017-04-16T00:31:26.436Z,12.97
2017-04-16T00:32:25.704Z,11.98
2017-04-16T00:33:24.927Z,13.20
2017-04-16T00:34:24.453Z,13.25
2017-04-16T00:35:24.461Z,13.30
2017-04-16T00:36:24.615Z,13.98
2017-04-16T00:37:23.841Z,15.88
2017-04-16T00:38:23.108Z,13.92
2017-04-16T00:39:22.334Z,12.68
2017-04-16T00:40:22.413Z,13.38
2017-04-16T00:41:21.641Z,12.97
2017-04-16T00:42:20.901Z,14.12
2017-04-16T00:43:20.144Z,13.72
2017-04-16T00:44:19.381Z,14.23
2017-04-16T00:45:18.595Z,13.08
2017-04-16T00:46:18.880Z,12.20
2017-04-16T00:47:18.105Z,12.58
2017-04-16T00:48:17.340Z,13.97
2017-04-16T00:49:17.338Z,12.37
2017-04-16T00:50:16.592Z,12.17
2017-04-16T00:51:15.828Z,12.35
2017-04-16T00:52:15.117Z,12.52
2017-04-16T00:53:14.368Z,13.12
2017-04-16T00:54:13.689Z,14.95
2017-04-16T00:55:12.924Z,11.35
2017-04-16T00:56:12.133Z,13.55
2017-04-16T00:57:11.349Z,12.33
2017-04-16T00:58:10.622Z,11.65
2017-04-16T00:59:09.854Z,13.60
2017-04-16T01:00:10.914Z,12.68
2017-04-16T01:01:15.473Z,11.57
2017-04-16T01:02:20.044Z,11.92
2017-04-16T01:03:20.334Z,12.70
2017-04-16T01:04:19.635Z,11.30
2017-04-16T01:05:18.956Z,12.23
2017-04-16T01:06:18.189Z,12.25
2017-04-16T01:07:17.422Z,11.60
2017-04-16T01:08:17.418Z,13.03
2017-04-16T01:09:16.695Z,10.48
2017-04-16T01:10:15.904Z,10.67
2017-04-16T01:11:15.161Z,10.20
2017-04-16T01:12:14.397Z,11.10
2017-04-16T01:13:14.472Z,10.72
2017-04-16T01:14:13.844Z,10.83
2017-04-16T01:15:13.092Z,13.83
2017-04-16T01:16:12.308Z,10.82
2017-04-16T01:17:11.529Z,11.63
2017-04-16T01:18:10.749Z,11.40
2017-04-16T01:19:10.035Z,12.15
2017-04-16T01:20:10.103Z,12.02
2017-04-16T01:21:09.356Z,11.62
2017-04-16T01:22:08.654Z,13.90
2017-04-16T01:23:07.910Z,10.97
2017-04-16T01:24:07.897Z,11.60
2017-04-16T01:25:07.140Z,10.97
2017-04-16T01:26:06.396Z,11.17
2017-04-16T01:27:06.681Z,10.88
2017-04-16T01:28:06.708Z,13.23
2017-04-16T01:29:05.978Z,13.10
2017-04-16T01:30:05.227Z,13.07
2017-04-16T01:31:04.457Z,12.00
2017-04-16T01:32:03.732Z,11.43
2017-04-16T01:33:02.989Z,11.42
2017-04-16T01:34:02.224Z,12.98
2017-04-16T01:35:01.484Z,11.27
2017-04-16T01:36:00.708Z,10.48
2017-04-16T01:36:59.959Z,10.88
2017-04-16T01:37:59.227Z,11.20
2017-04-16T01:38:58.514Z,11.37
2017-04-16T01:39:58.487Z,11.03
2017-04-16T01:40:57.712Z,11.75
2017-04-16T01:41:56.929Z,11.08
2017-04-16T01:42:56.221Z,10.42
2017-04-16T01:43:55.493Z,11.27
2017-04-16T01:44:54.763Z,14.57
2017-04-16T01:45:53.997Z,12.57
2017-04-16T01:46:53.281Z,11.15
2017-04-16T01:47:52.516Z,12.67
2017-04-16T01:48:51.820Z,10.85
2017-04-16T01:49:51.071Z,11.35
2017-04-16T01:50:50.324Z,12.80
2017-04-16T01:51:50.302Z,10.72
2017-04-16T01:52:49.508Z,10.38
2017-04-16T01:53:48.748Z,12.13
2017-04-16T01:54:47.966Z,10.28
2017-04-16T01:55:47.245Z,11.20
2017-04-16T01:56:46.507Z,11.15
2017-04-16T01:57:45.762Z,10.60
2017-04-16T01:58:45.016Z,11.12
2017-04-16T01:59:44.315Z,11.37
2017-04-16T02:00:43.597Z,13.58
2017-04-16T02:01:42.857Z,13.33
2017-04-16T02:02:42.163Z,11.12
2017-04-16T02:03:41.393Z,12.40
2017-04-16T02:04:40.924Z,11.50
2017-04-16T02:05:40.177Z,10.87
2017-04-16T02:06:40.169Z,12.07
2017-04-16T02:07:39.405Z,10.70
2017-04-16T02:08:38.676Z,12.32
2017-04-16T02:09:37.973Z,11.72
2017-04-16T02:10:37.226Z,9.37
2017-04-16T02:11:36.450Z,11.97
2017-04-16T02:12:35.693Z,11.18
2017-04-16T02:13:34.920Z,11.87
2017-04-16T02:14:34.169Z,9.75
2017-04-16T02:15:33.406Z,10.70
2017-04-16T02:16:32.641Z,11.13
2017-04-16T02:17:31.912Z,10.60
2017-04-16T02:18:31.148Z,9.87
2017-04-16T02:19:30.385Z,9.40
2017-04-16T02:20:30.016Z,10.43
2017-04-16T02:21:29.261Z,11.90
2017-04-16T02:22:28.514Z,10.15
2017-04-16T02:23:27.763Z,10.20
2017-04-16T02:24:26.990Z,9.65
2017-04-16T02:25:26.221Z,11.18
2017-04-16T02:26:25.488Z,10.90
2017-04-16T02:27:25.517Z,10.43
2017-04-16T02:28:24.780Z,9.53
2017-04-16T02:29:24.796Z,10.87
2017-04-16T02:30:24.041Z,10.53
2017-04-16T02:31:23.360Z,10.87
2017-04-16T02:32:22.620Z,10.67
2017-04-16T02:33:21.888Z,9.25
2017-04-16T02:34:21.176Z,10.02
2017-04-16T02:35:20.454Z,9.68
2017-04-16T02:36:19.738Z,10.02
2017-04-16T02:37:19.002Z,8.73
2017-04-16T02:38:18.262Z,10.43
2017-04-16T02:39:17.521Z,9.35
2017-04-16T02:40:16.752Z,8.73
2017-04-16T02:41:15.989Z,12.33
2017-04-16T02:42:15.244Z,11.80
2017-04-16T02:43:14.598Z,9.48
2017-04-16T02:44:14.113Z,8.50
2017-04-16T02:45:13.421Z,10.10
2017-04-16T02:46:12.685Z,9.07
2017-04-16T02:47:11.901Z,10.25
2017-04-16T02:48:11.152Z,8.10
2017-04-16T02:49:10.499Z,9.35
2017-04-16T02:50:09.757Z,9.02
2017-04-16T02:51:08.974Z,9.95
2017-04-16T02:52:08.955Z,10.55
2017-04-16T02:53:08.225Z,10.48
2017-04-16T02:54:07.455Z,9.05
2017-04-16T02:55:06.680Z,11.75
2017-04-16T02:56:06.317Z,8.58
2017-04-16T02:57:05.588Z,8.45
2017-04-16T02:58:04.860Z,9.17
2017-04-16T02:59:04.125Z,8.37
2017-04-16T03:00:03.349Z,8.25
2017-04-16T03:01:02.630Z,10.15
2017-04-16T03:02:01.920Z,8.92
2017-04-16T03:03:01.146Z,8.92
2017-04-16T03:04:00.397Z,9.07
2017-04-16T03:04:59.638Z,9.17
2017-04-16T03:05:58.886Z,9.70
2017-04-16T03:06:58.163Z,10.08
2017-04-16T03:07:57.420Z,10.60
2017-04-16T03:08:56.636Z,9.22
2017-04-16T03:09:55.902Z,9.73
2017-04-16T03:10:55.896Z,11.45
2017-04-16T03:11:55.150Z,8.97
2017-04-16T03:12:54.376Z,8.20
2017-04-16T03:13:53.856Z,8.90
2017-04-16T03:14:53.081Z,8.37
2017-04-16T03:15:53.040Z,9.95
2017-04-16T03:16:52.257Z,8.40
2017-04-16T03:17:51.505Z,8.53
2017-04-16T03:18:50.764Z,8.17
2017-04-16T03:19:50.040Z,8.12
2017-04-16T03:20:50.005Z,7.43
2017-04-16T03:21:49.241Z,8.17
2017-04-16T03:22:49.229Z,7.78
2017-04-16T03:23:48.471Z,9.28
2017-04-16T03:24:47.740Z,10.35
2017-04-16T03:25:47.000Z,7.92
2017-04-16T03:26:46.217Z,7.80
2017-04-16T03:27:45.440Z,10.55
2017-04-16T03:28:44.660Z,8.80
2017-04-16T03:29:43.879Z,8.05
2017-04-16T03:30:43.116Z,7.75
2017-04-16T03:31:42.636Z,8.53
2017-04-16T03:32:41.963Z,8.35
2017-04-16T03:33:41.213Z,8.83
2017-04-16T03:34:40.413Z,7.03
2017-04-16T03:35:39.641Z,7.82
2017-04-16T03:36:38.852Z,7.25
2017-04-16T03:37:38.168Z,10.25
2017-04-16T03:38:37.433Z,7.10
2017-04-16T03:39:36.640Z,9.38
2017-04-16T03:40:35.880Z,9.37
2017-04-16T03:41:35.090Z,8.25
2017-04-16T03:42:34.326Z,8.08
2017-04-16T03:43:33.805Z,8.27
2017-04-16T03:44:33.800Z,9.43
2017-04-16T03:45:33.025Z,7.88
2017-04-16T03:46:32.996Z,10.43
2017-04-16T03:47:32.260Z,10.15
2017-04-16T03:48:31.485Z,8.80
2017-04-16T03:49:30.769Z,8.93
2017-04-16T03:50:30.025Z,8.45
2017-04-16T03:51:29.304Z,8.55
2017-04-16T03:52:28.541Z,11.85
2017-04-16T03:53:27.766Z,9.03
2017-04-16T03:54:27.732Z,9.13
2017-04-16T03:55:26.976Z,8.25
2017-04-16T03:56:26.206Z,9.98
2017-04-16T03:57:25.444Z,9.03
2017-04-16T03:58:24.692Z,9.23
2017-04-16T03:59:23.912Z,8.98
2017-04-16T04:00:23.344Z,12.53
2017-04-16T04:01:22.813Z,8.22
2017-04-16T04:02:22.778Z,7.97
2017-04-16T04:03:22.023Z,10.17
2017-04-16T04:04:21.263Z,10.20
2017-04-16T04:05:20.500Z,9.15
2017-04-16T04:06:19.703Z,9.20
2017-04-16T04:07:19.045Z,8.98
2017-04-16T04:08:18.290Z,9.93
2017-04-16T04:09:17.513Z,8.40
2017-04-16T04:10:16.764Z,8.45
2017-04-16T04:11:16.048Z,12.48
2017-04-16T04:12:15.297Z,9.70
2017-04-16T04:13:14.717Z,9.20
2017-04-16T04:14:13.937Z,10.13
2017-04-16T04:15:13.155Z,8.87
2017-04-16T04:16:12.400Z,8.83
2017-04-16T04:17:11.632Z,9.00
2017-04-16T04:18:10.878Z,9.85
2017-04-16T04:19:10.524Z,8.98
2017-04-16T04:20:09.776Z,9.63
2017-04-16T04:21:09.029Z,8.85
2017-04-16T04:22:09.078Z,10.22
2017-04-16T04:23:08.344Z,10.42
2017-04-16T04:24:07.549Z,10.43
2017-04-16T04:25:06.821Z,8.88
2017-04-16T04:26:05.296Z,10.05
2017-04-16T04:27:04.537Z,8.72
2017-04-16T04:28:03.737Z,11.35
2017-04-16T04:29:03.004Z,9.62
2017-04-16T04:30:02.254Z,10.23
2017-04-16T04:31:01.776Z,9.65
2017-04-16T04:32:01.006Z,10.62
2017-04-16T04:33:00.971Z,12.42
2017-04-16T04:34:00.191Z,10.07
2017-04-16T04:34:59.412Z,9.62
2017-04-16T04:35:58.648Z,10.88
2017-04-16T04:36:57.923Z,18.10
2017-04-16T04:37:57.148Z,10.97
2017-04-16T04:38:56.396Z,10.30
2017-04-16T04:39:55.650Z,10.87
2017-04-16T04:40:54.888Z,9.83
2017-04-16T04:41:54.116Z,11.35
2017-04-16T04:42:53.590Z,9.65
2017-04-16T04:43:52.811Z,11.13
2017-04-16T04:44:52.099Z,12.30
2017-04-16T04:45:52.082Z,11.62
2017-04-16T04:46:51.304Z,11.02
2017-04-16T04:47:51.309Z,10.77
2017-04-16T04:48:51.328Z,11.88
2017-04-16T04:49:50.573Z,11.37
2017-04-16T04:50:49.820Z,13.60
2017-04-16T04:51:49.084Z,14.50
2017-04-16T04:52:48.381Z,10.60
2017-04-16T04:53:48.332Z,10.57
2017-04-16T04:54:47.617Z,11.50
2017-04-16T04:55:46.820Z,10.97
2017-04-16T04:56:46.041Z,10.77
2017-04-16T04:57:46.031Z,13.48
2017-04-16T04:58:45.242Z,11.15
2017-04-16T04:59:44.460Z,10.85
2017-04-16T05:00:43.965Z,13.10
2017-04-16T05:01:43.201Z,13.32
2017-04-16T05:02:42.441Z,10.85
2017-04-16T05:03:41.663Z,13.72
2017-04-16T05:04:40.896Z,13.10
2017-04-16T05:05:40.138Z,10.72
2017-04-16T05:06:39.404Z,12.37
2017-04-16T05:07:38.606Z,9.83
2017-04-16T05:08:37.825Z,11.03
2017-04-16T05:09:37.044Z,13.43
2017-04-16T05:10:36.273Z,10.45
2017-04-16T05:11:35.519Z,11.58
2017-04-16T05:12:34.811Z,11.98
2017-04-16T05:13:34.038Z,11.80
2017-04-16T05:14:33.306Z,11.03
2017-04-16T05:15:32.549Z,11.38
2017-04-16T05:16:31.828Z,12.62
2017-04-16T05:17:31.063Z,13.02
2017-04-16T05:18:30.552Z,13.45
2017-04-16T05:19:30.548Z,11.62
2017-04-16T05:20:29.776Z,10.90
2017-04-16T05:21:29.015Z,10.73
2017-04-16T05:22:28.231Z,11.47
2017-04-16T05:23:27.449Z,9.77
2017-04-16T05:24:26.711Z,11.88
2017-04-16T05:25:25.949Z,10.83
2017-04-16T05:26:25.160Z,11.25
2017-04-16T05:27:24.380Z,9.85
2017-04-16T05:28:23.640Z,12.17
2017-04-16T05:29:22.864Z,10.42
2017-04-16T05:30:22.386Z,9.15
2017-04-16T05:31:21.656Z,10.63
2017-04-16T05:32:20.906Z,11.48
2017-04-16T05:33:20.152Z,10.58
2017-04-16T05:34:19.377Z,9.58
2017-04-16T05:35:18.604Z,12.03
2017-04-16T05:36:17.895Z,9.53
2017-04-16T05:37:17.117Z,9.62
2017-04-16T05:38:16.335Z,11.15
2017-04-16T05:39:15.630Z,11.57
2017-04-16T05:40:14.905Z,9.25
2017-04-16T05:41:14.144Z,9.12
2017-04-16T05:42:13.689Z,9.67
2017-04-16T05:43:13.283Z,13.15
2017-04-16T05:44:12.490Z,10.43
2017-04-16T05:45:11.733Z,10.13
2017-04-16T05:46:10.961Z,11.02
2017-04-16T05:47:10.172Z,10.47
2017-04-16T05:48:09.416Z,9.97
2017-04-16T05:49:08.617Z,9.63
2017-04-16T05:50:07.856Z,10.18
2017-04-16T05:51:07.080Z,9.70
2017-04-16T05:52:06.292Z,10.28
2017-04-16T05:53:05.487Z,8.83
2017-04-16T05:54:05.080Z,12.95
2017-04-16T05:55:04.320Z,8.58
2017-04-16T05:56:03.515Z,10.00
2017-04-16T05:57:02.779Z,10.62
2017-04-16T05:58:02.019Z,9.75
2017-04-16T05:59:01.234Z,9.68
2017-04-16T06:00:00.480Z,9.58
2017-04-16T06:00:59.717Z,8.85
2017-04-16T06:01:58.960Z,9.45
2017-04-16T06:02:58.213Z,8.78
2017-04-16T06:03:58.169Z,9.55
2017-04-16T06:04:57.411Z,13.95
2017-04-16T06:05:57.426Z,11.30
2017-04-16T06:06:56.678Z,8.60
2017-04-16T06:07:55.910Z,11.77
2017-04-16T06:08:55.144Z,10.88
2017-04-16T06:09:54.358Z,9.35
2017-04-16T06:10:53.692Z,9.40
2017-04-16T06:11:53.225Z,8.50
2017-04-16T06:12:52.432Z,8.63
2017-04-16T06:13:51.678Z,9.80
2017-04-16T06:14:50.884Z,9.78
2017-04-16T06:15:50.113Z,10.37
2017-04-16T06:16:50.088Z,10.23
2017-04-16T06:17:49.357Z,12.32
2017-04-16T06:18:48.566Z,9.75
2017-04-16T06:19:47.776Z,10.88
2017-04-16T06:20:47.004Z,9.05
2017-04-16T06:21:46.213Z,9.90
2017-04-16T06:22:45.457Z,10.22
2017-04-16T06:23:45.141Z,9.92
2017-04-16T06:24:44.349Z,8.95
2017-04-16T06:25:44.416Z,11.58
2017-04-16T06:26:43.635Z,11.38
2017-04-16T06:27:42.850Z,10.93
2017-04-16T06:28:42.065Z,9.83
2017-04-16T06:29:41.867Z,10.43
2017-04-16T06:30:41.091Z,10.32
2017-04-16T06:31:40.304Z,14.72
2017-04-16T06:32:40.252Z,12.63
2017-04-16T06:33:39.488Z,9.30
2017-04-16T06:34:38.745Z,10.87
2017-04-16T06:35:38.036Z,10.77
2017-04-16T06:36:37.284Z,11.23
2017-04-16T06:37:36.527Z,9.82
2017-04-16T06:38:35.752Z,10.62
2017-04-16T06:39:35.785Z,9.78
2017-04-16T06:40:35.009Z,9.33
2017-04-16T06:41:35.226Z,9.27
2017-04-16T06:42:34.444Z,11.67
2017-04-16T06:43:34.410Z,12.00
2017-04-16T06:44:33.648Z,9.72
2017-04-16T06:45:32.888Z,9.80
2017-04-16T06:46:32.115Z,10.67
2017-04-16T06:47:32.120Z,11.48
2017-04-16T06:48:31.331Z,13.13
2017-04-16T06:49:30.548Z,12.57
2017-04-16T06:50:29.767Z,10.55
2017-04-16T06:51:29.020Z,10.73
2017-04-16T06:52:28.248Z,10.78
2017-04-16T06:53:27.737Z,9.95
2017-04-16T06:54:26.977Z,10.33
2017-04-16T06:55:26.209Z,10.55
2017-04-16T06:56:25.420Z,10.53
2017-04-16T06:57:24.628Z,11.95
2017-04-16T06:58:24.618Z,11.37
2017-04-16T06:59:23.881Z,15.85
2017-04-16T07:00:23.161Z,11.47
2017-04-16T07:01:22.385Z,10.42
2017-04-16T07:02:21.598Z,9.75
2017-04-16T07:03:21.537Z,11.70
2017-04-16T07:04:20.821Z,10.83
2017-04-16T07:05:20.046Z,10.63
2017-04-16T07:06:19.279Z,14.55
2017-04-16T07:07:18.513Z,12.12
2017-04-16T07:08:17.753Z,12.73
2017-04-16T07:09:16.985Z,12.08
2017-04-16T07:10:16.223Z,12.62
2017-04-16T07:11:15.785Z,10.65
2017-04-16T07:12:14.993Z,11.90
2017-04-16T07:13:14.258Z,10.40
2017-04-16T07:14:13.479Z,9.95
2017-04-16T07:15:12.732Z,11.88
2017-04-16T07:16:11.966Z,9.82
2017-04-16T07:17:11.960Z,9.62
2017-04-16T07:18:11.173Z,10.82
2017-04-16T07:19:10.548Z,11.78
2017-04-16T07:20:09.876Z,11.22
2017-04-16T07:21:09.388Z,14.32
2017-04-16T07:22:08.629Z,10.70
2017-04-16T07:23:08.930Z,10.53
2017-04-16T07:24:08.161Z,9.95
2017-04-16T07:25:07.385Z,11.23
2017-04-16T07:26:06.613Z,11.63
2017-04-16T07:27:06.583Z,11.73
2017-04-16T07:28:05.823Z,11.05
2017-04-16T07:29:05.080Z,11.43
2017-04-16T07:30:04.308Z,13.93
2017-04-16T07:31:03.520Z,12.13
2017-04-16T07:32:02.989Z,9.08
2017-04-16T07:33:02.200Z,10.82
2017-04-16T07:34:01.429Z,9.83
2017-04-16T07:35:00.977Z,10.32
2017-04-16T07:36:00.203Z,13.78
2017-04-16T07:36:59.421Z,10.02
2017-04-16T07:37:59.402Z,11.07
2017-04-16T07:38:58.648Z,10.77
2017-04-16T07:39:57.865Z,10.63
2017-04-16T07:40:57.118Z,9.52
2017-04-16T07:41:56.330Z,13.37
2017-04-16T07:42:55.562Z,10.68
2017-04-16T07:43:55.032Z,9.47
2017-04-16T07:44:54.984Z,10.18
2017-04-16T07:45:54.964Z,11.25
2017-04-16T07:46:54.207Z,12.60
2017-04-16T07:47:53.438Z,9.93
2017-04-16T07:48:52.649Z,11.35
2017-04-16T07:49:52.622Z,11.98
2017-04-16T07:50:51.822Z,9.57
2017-04-16T07:51:51.058Z,9.97
2017-04-16T07:52:50.709Z,10.80
2017-04-16T07:53:49.968Z,13.52
2017-04-16T07:54:49.187Z,7.90
2017-04-16T07:55:48.428Z,8.18
2017-04-16T07:56:47.644Z,11.08
2017-04-16T07:57:46.922Z,10.32
2017-04-16T07:58:46.201Z,9.27
2017-04-16T07:59:45.445Z,10.93
2017-04-16T08:00:44.698Z,9.43
2017-04-16T08:01:43.921Z,12.10
2017-04-16T08:02:43.142Z,10.40
2017-04-16T08:03:42.390Z,10.55
2017-04-16T08:04:41.897Z,11.13
2017-04-16T08:05:41.156Z,9.58
2017-04-16T08:06:40.381Z,8.50
2017-04-16T08:07:40.361Z,11.18
2017-04-16T08:08:39.573Z,10.12
2017-04-16T08:09:38.790Z,10.73
2017-04-16T08:10:38.180Z,8.63
2017-04-16T08:11:37.410Z,8.50
2017-04-16T08:12:37.402Z,8.27
2017-04-16T08:13:36.672Z,9.00
2017-04-16T08:14:35.921Z,10.28
2017-04-16T08:15:35.149Z,10.87
2017-04-16T08:16:34.710Z,9.57
2017-04-16T08:17:34.080Z,8.52
2017-04-16T08:18:33.300Z,8.02
2017-04-16T08:19:32.520Z,10.38
2017-04-16T08:20:31.774Z,10.47
2017-04-16T08:21:30.993Z,8.30
2017-04-16T08:22:30.236Z,8.35
2017-04-16T08:23:29.444Z,9.02
2017-04-16T08:24:28.664Z,7.55
2017-04-16T08:25:27.873Z,8.40
2017-04-16T08:26:27.117Z,8.88
2017-04-16T08:27:26.334Z,7.70
2017-04-16T08:28:25.610Z,8.30
2017-04-16T08:29:25.570Z,9.52
2017-04-16T08:30:24.834Z,8.83
2017-04-16T08:31:24.080Z,9.75
2017-04-16T08:32:23.286Z,8.37
2017-04-16T08:33:23.231Z,9.38
2017-04-16T08:34:22.855Z,13.53
2017-04-16T08:35:22.802Z,7.97
2017-04-16T08:36:22.036Z,8.28
2017-04-16T08:37:21.241Z,7.70
2017-04-16T08:38:20.456Z,8.05
2017-04-16T08:39:20.425Z,6.92
2017-04-16T08:40:19.928Z,9.50
2017-04-16T08:41:19.148Z,9.20
2017-04-16T08:42:19.108Z,9.10
2017-04-16T08:43:18.320Z,8.48
2017-04-16T08:44:17.543Z,6.82
2017-04-16T08:45:16.744Z,6.27
2017-04-16T08:46:16.044Z,6.80
2017-04-16T08:47:15.265Z,7.45
2017-04-16T08:48:14.487Z,6.92
2017-04-16T08:49:14.461Z,7.15
2017-04-16T08:50:13.686Z,5.92
2017-04-16T08:51:13.824Z,7.03
2017-04-16T08:52:13.080Z,7.58
2017-04-16T08:53:12.292Z,10.05
2017-04-16T08:54:11.517Z,6.95
2017-04-16T08:55:10.736Z,9.55
2017-04-16T08:56:09.952Z,9.55
2017-04-16T08:57:09.179Z,7.60
2017-04-16T08:58:08.680Z,7.23
2017-04-16T08:59:07.976Z,6.80
2017-04-16T09:00:07.216Z,6.72
2017-04-16T09:01:06.449Z,8.02
2017-04-16T09:02:05.689Z,7.30
2017-04-16T09:03:05.665Z,7.20
2017-04-16T09:04:04.924Z,9.68
2017-04-16T09:05:04.158Z,8.13
2017-04-16T09:06:03.405Z,6.37
2017-04-16T09:07:02.630Z,7.07
2017-04-16T09:08:01.860Z,5.67
2017-04-16T09:09:01.079Z,5.87
2017-04-16T09:10:00.692Z,8.92
2017-04-16T09:10:59.941Z,6.17
2017-04-16T09:11:59.184Z,9.73
2017-04-16T09:12:58.413Z,6.22
2017-04-16T09:13:57.650Z,8.28
2017-04-16T09:14:56.861Z,5.15
2017-04-16T09:15:56.109Z,7.23
2017-04-16T09:16:55.334Z,6.93
2017-04-16T09:17:54.558Z,5.82
2017-04-16T09:18:53.840Z,7.65
2017-04-16T09:19:53.053Z,9.13
2017-04-16T09:20:52.280Z,6.93
2017-04-16T09:21:51.979Z,6.37
2017-04-16T09:22:51.218Z,6.67
2017-04-16T09:23:50.465Z,6.15
2017-04-16T09:24:49.678Z,5.95
2017-04-16T09:25:48.882Z,6.25
2017-04-16T09:26:48.126Z,7.77
2017-04-16T09:27:48.112Z,6.22
2017-04-16T09:28:47.331Z,7.32
2017-04-16T09:29:46.569Z,5.85
2017-04-16T09:30:45.812Z,5.83
2017-04-16T09:31:45.040Z,7.65
2017-04-16T09:32:44.280Z,8.07
2017-04-16T09:33:43.521Z,6.45
2017-04-16T09:34:42.731Z,6.07
2017-04-16T09:35:41.960Z,5.75
2017-04-16T09:36:41.185Z,6.70
2017-04-16T09:37:40.465Z,6.75
2017-04-16T09:38:39.736Z,6.82
2017-04-16T09:39:38.984Z,7.20
2017-04-16T09:40:38.226Z,5.35
2017-04-16T09:41:38.198Z,6.47
2017-04-16T09:42:37.413Z,6.15
2017-04-16T09:43:37.376Z,6.83
2017-04-16T09:44:39.183Z,5.45
2017-04-16T09:45:38.487Z,6.32
2017-04-16T09:46:37.756Z,7.52
2017-04-16T09:47:37.737Z,5.38
2017-04-16T09:48:36.970Z,6.37
2017-04-16T09:49:36.181Z,6.63
2017-04-16T09:50:35.381Z,8.05
2017-04-16T09:51:34.884Z,5.78
2017-04-16T09:52:34.096Z,6.75
2017-04-16T09:53:33.311Z,6.15
2017-04-16T09:54:33.269Z,5.17
2017-04-16T09:55:32.492Z,4.93
2017-04-16T09:56:31.710Z,6.87
2017-04-16T09:57:30.954Z,6.27
2017-04-16T09:58:30.200Z,6.03
2017-04-16T09:59:29.421Z,7.37
2017-04-16T10:00:28.644Z,6.03
2017-04-16T10:01:27.880Z,5.65
2017-04-16T10:02:27.155Z,7.08
2017-04-16T10:03:26.413Z,5.00
2017-04-16T10:04:26.400Z,6.68
2017-04-16T10:05:25.633Z,6.30
2017-04-16T10:06:24.864Z,7.10
2017-04-16T10:07:24.830Z,6.05
2017-04-16T10:08:24.057Z,5.33
2017-04-16T10:09:24.036Z,6.55
2017-04-16T10:10:23.253Z,6.45
2017-04-16T10:11:22.626Z,7.07
2017-04-16T10:12:21.894Z,5.65
2017-04-16T10:13:21.129Z,7.03
2017-04-16T10:14:20.343Z,7.72
2017-04-16T10:15:19.808Z,6.23
2017-04-16T10:16:19.033Z,5.55
2017-04-16T10:17:18.250Z,5.78
2017-04-16T10:18:17.489Z,10.93
2017-04-16T10:19:16.726Z,7.33
2017-04-16T10:20:15.956Z,6.48
2017-04-16T10:21:15.249Z,6.67
2017-04-16T10:22:14.512Z,7.82
2017-04-16T10:23:13.732Z,7.35
2017-04-16T10:24:12.949Z,7.05
2017-04-16T10:25:12.926Z,5.42
2017-04-16T10:26:12.144Z,8.92
2017-04-16T10:27:12.436Z,7.62
2017-04-16T10:28:11.660Z,6.32
2017-04-16T10:29:10.920Z,8.92
2017-04-16T10:30:10.177Z,6.58
2017-04-16T10:31:09.408Z,5.08
2017-04-16T10:32:08.629Z,7.60
2017-04-16T10:33:07.883Z,8.10
2017-04-16T10:34:07.116Z,5.52
2017-04-16T10:35:06.368Z,8.52
2017-04-16T10:36:06.332Z,8.05
2017-04-16T10:37:05.553Z,6.35
2017-04-16T10:38:04.792Z,9.35
2017-04-16T10:39:05.652Z,5.23
2017-04-16T10:40:04.880Z,5.50
2017-04-16T10:41:04.850Z,5.73
2017-04-16T10:42:04.095Z,7.18
2017-04-16T10:43:03.313Z,9.33
2017-04-16T10:44:02.561Z,5.07
2017-04-16T10:45:01.796Z,4.98
2017-04-16T10:46:01.012Z,5.55
2017-04-16T10:47:00.228Z,7.70
2017-04-16T10:47:59.440Z,7.23
2017-04-16T10:48:58.673Z,5.63
2017-04-16T10:49:57.908Z,5.60
2017-04-16T10:50:57.171Z,5.50
2017-04-16T10:51:57.137Z,7.87
2017-04-16T10:52:56.381Z,5.12
2017-04-16T10:53:55.585Z,6.43
2017-04-16T10:54:54.821Z,5.82
2017-04-16T10:55:54.053Z,5.72
2017-04-16T10:56:53.293Z,5.03
2017-04-16T10:57:52.500Z,5.32
2017-04-16T10:58:51.717Z,4.72
2017-04-16T10:59:50.921Z,4.55
2017-04-16T11:00:50.153Z,6.20
2017-04-16T11:01:49.386Z,8.38
2017-04-16T11:02:48.637Z,7.07
2017-04-16T11:03:47.865Z,9.60
2017-04-16T11:04:47.094Z,7.30
2017-04-16T11:05:46.300Z,5.92
2017-04-16T11:06:45.508Z,5.25
2017-04-16T11:07:44.738Z,4.93
2017-04-16T11:08:43.993Z,5.22
2017-04-16T11:09:43.205Z,5.52
2017-04-16T11:10:42.437Z,7.20
2017-04-16T11:11:41.663Z,5.38
2017-04-16T11:12:41.640Z,4.95
2017-04-16T11:13:40.912Z,5.00
2017-04-16T11:14:40.185Z,5.13
2017-04-16T11:15:39.418Z,5.45
2017-04-16T11:16:38.648Z,5.40
2017-04-16T11:17:37.877Z,6.78
2017-04-16T11:18:37.100Z,7.13
2017-04-16T11:19:36.309Z,4.55
2017-04-16T11:20:36.784Z,4.18
2017-04-16T11:21:36.005Z,5.25
2017-04-16T11:22:35.213Z,4.40
2017-04-16T11:23:34.532Z,6.55
2017-04-16T11:24:33.755Z,6.65
2017-04-16T11:25:32.999Z,5.62
2017-04-16T11:26:32.270Z,5.20
2017-04-16T11:27:31.480Z,6.25
2017-04-16T11:28:30.700Z,5.45
2017-04-16T11:29:30.740Z,4.72
2017-04-16T11:30:29.965Z,4.62
2017-04-16T11:31:29.205Z,4.58
2017-04-16T11:32:28.688Z,4.60
2017-04-16T11:33:27.950Z,4.87
2017-04-16T11:34:27.215Z,5.90
2017-04-16T11:35:26.438Z,5.30
2017-04-16T11:36:25.944Z,4.78
2017-04-16T11:37:25.185Z,6.37
2017-04-16T11:38:24.427Z,4.00
2017-04-16T11:39:23.654Z,4.32
2017-04-16T11:40:22.879Z,5.37
2017-04-16T11:41:22.108Z,4.10
2017-04-16T11:42:21.376Z,3.77
2017-04-16T11:43:20.588Z,6.80
2017-04-16T11:44:19.851Z,4.75
2017-04-16T11:45:19.086Z,3.57
2017-04-16T11:46:19.068Z,4.05
2017-04-16T11:47:18.324Z,4.77
2017-04-16T11:48:17.549Z,3.62
2017-04-16T11:49:16.772Z,4.00
2017-04-16T11:50:16.057Z,5.40
2017-04-16T11:51:15.296Z,3.85
2017-04-16T11:52:15.280Z,4.65
2017-04-16T11:53:14.497Z,4.88
2017-04-16T11:54:13.718Z,4.12
2017-04-16T11:55:13.680Z,4.40
2017-04-16T11:56:13.184Z,4.88
2017-04-16T11:57:12.433Z,7.27
2017-04-16T11:58:11.657Z,6.40
2017-04-16T11:59:10.992Z,8.45
2017-04-16T12:00:11.024Z,3.77
2017-04-16T12:01:10.252Z,4.18
2017-04-16T12:02:09.867Z,5.48
2017-04-16T12:03:09.100Z,3.53
2017-04-16T12:04:08.333Z,5.15
2017-04-16T12:05:07.577Z,4.45
2017-04-16T12:06:06.801Z,6.03
2017-04-16T12:07:06.027Z,4.93
2017-04-16T12:08:06.107Z,4.75
2017-04-16T12:09:05.430Z,5.58
2017-04-16T12:10:04.784Z,4.45
2017-04-16T12:11:04.001Z,4.20
2017-04-16T12:12:03.223Z,4.62
2017-04-16T12:13:02.480Z,3.70
2017-04-16T12:14:01.962Z,6.62
2017-04-16T12:15:01.169Z,5.50
2017-04-16T12:16:00.381Z,3.95
2017-04-16T12:16:59.609Z,3.50
2017-04-16T12:17:58.842Z,4.77
2017-04-16T12:18:58.804Z,7.05
2017-04-16T12:19:58.064Z,3.72
2017-04-16T12:20:57.286Z,6.65
2017-04-16T12:21:56.517Z,5.25
2017-04-16T12:22:56.486Z,4.82
2017-04-16T12:23:55.721Z,4.07
2017-04-16T12:24:54.933Z,6.55
2017-04-16T12:25:54.409Z,3.78
2017-04-16T12:26:53.624Z,3.73
2017-04-16T12:27:52.844Z,5.50
2017-04-16T12:28:52.117Z,3.80
2017-04-16T12:29:51.380Z,4.98
2017-04-16T12:30:50.595Z,4.37
2017-04-16T12:31:50.105Z,4.15
2017-04-16T12:32:49.329Z,6.53
2017-04-16T12:33:49.328Z,3.55
2017-04-16T12:34:49.281Z,4.47
2017-04-16T12:35:48.517Z,4.02
2017-04-16T12:36:47.774Z,4.68
2017-04-16T12:37:47.009Z,4.82
2017-04-16T12:38:47.002Z,4.07
2017-04-16T12:39:46.225Z,6.90
2017-04-16T12:40:45.456Z,4.92
2017-04-16T12:41:44.704Z,7.33
2017-04-16T12:42:43.931Z,3.68
2017-04-16T12:43:43.444Z,3.80
2017-04-16T12:44:42.659Z,7.87
2017-04-16T12:45:42.633Z,8.23
2017-04-16T12:46:41.873Z,7.65
2017-04-16T12:47:41.120Z,6.55
2017-04-16T12:48:40.333Z,5.68
2017-04-16T12:49:40.332Z,11.12
2017-04-16T12:50:39.584Z,5.68
2017-04-16T12:51:38.848Z,5.02
2017-04-16T12:52:38.074Z,5.12
2017-04-16T12:53:37.277Z,4.78
2017-04-16T12:54:36.501Z,4.08
2017-04-16T12:55:35.753Z,7.13
2017-04-16T12:56:34.962Z,7.92
2017-04-16T12:57:34.908Z,5.72
2017-04-16T12:58:34.303Z,5.32
2017-04-16T12:59:33.673Z,5.70